This demonstration page uses our WeatherBlox Daily Observations layout. Learn more.

Left ArrowRight Arrow

38.88101, -77.10428

Hourly Observations for March 12, 2019

Temp ( °F °C ) Dew Point ( °F °C ) Humidity (%) Winds ( mph kmh ) Pressure ( in mb ) Visibility ( mi km ) Precip ( " mm )
12:52 am 00:52 Clear 50 10 20 -6.7 30 30 NW 12 19 30.18 1022 10 16.0934 0 0
1:52 am 01:52 Mostly Clear 47 8.3 22 -5.6 37 37 NNW 18 30 30.19 1022 10 16.0934 0 0
2:52 am 02:52 Mostly Clear 44 6.7 21 -6.1 40 40 NNW 17 28 30.22 1023 10 16.0934 0 0
3:52 am 03:52 Clear 44 6.7 19 -7.2 37 37 NW 18 30 30.22 1023 10 16.0934 0 0
4:52 am 04:52 Clear 42 5.6 20 -6.7 41 41 NNW 14 22 30.24 1024 10 16.0934 0 0
5:52 am 05:52 Mostly Clear 42 5.6 19 -7.2 40 40 NW 12 19 30.24 1024 10 16.0934 0 0
6:52 am 06:52 Clear 40 4.4 20 -6.7 45 45 NW 10 17 30.27 1025 10 16.0934 0 0
7:52 am 07:52 Sunny 41 5 21 -6.1 45 45 NW 9 15 30.28 1025 10 16.0934 0 0
8:52 am 08:52 Sunny 42 5.6 21 -6.1 43 43 N 16 26 30.3 1026 10 16.0934 0 0
9:52 am 09:52 Sunny 44 6.7 19 -7.2 37 37 N 14 22 30.31 1026 10 16.0934 0 0
10:52 am 10:52 Sunny 45 7.2 18 -7.8 34 34 NW 15 24 30.32 1027 10 16.0934 0 0
12:52 pm 12:52 Sunny 48 8.9 19 -7.2 32 32 W 16 26 30.33 1027 10 16.0934 0 0
1:52 pm 13:52 Sunny 50 10 18 -7.8 28 28 WNW 8 13 30.3 1026 10 16.0934 0 0
2:52 pm 14:52 Mostly Sunny 51 10.6 18 -7.8 27 27 NW 16 26 30.29 1026 10 16.0934 0 0
4:52 pm 16:52 Mostly Sunny 53 11.7 16 -8.9 23 23 NNW 9 15 30.28 1025 10 16.0934 0 0
5:52 pm 17:52 Mostly Sunny 52 11.1 16 -8.9 24 24 NNW 15 24 30.28 1025 10 16.0934 0 0
6:52 pm 18:52 Mostly Sunny 50 10 18 -7.8 28 28 N 12 19 30.29 1026 10 16.0934 0 0
8:52 pm 20:52 Clear 45 7.2 21 -6.1 39 39 N 9 15 30.32 1027 10 16.0934 0 0
9:52 pm 21:52 Clear 46 7.8 25 -3.9 44 44 NE 3 6 30.33 1027 10 16.0934 0 0
10:52 pm 22:52 Clear 45 7.2 24 -4.4 44 44 ENE 3 6 30.34 1027 10 16.0934 0 0
11:52 pm 23:52 Clear 44 6.7 26 -3.3 49 49 NNE 3 6 30.34 1028 10 16.0934 0 0

Powered by AerisWeather